Time;durP1;ratioP1;P1;durP2;ratioP2;P2;SDS_P1;SDS_P2;PMS_P1;PMS_P2;Temp;Humidity;BMP_temperature;BMP_pressure;BME280_temperature;BME280_humidity;BME280_pressure;Samples;Min_cycle;Max_cycle;Signal;HPM_P1;HPM_P2
2022/08/24 00:00:07;;;;;;;12.68;7.95;;;;;;;19.97;64.46;100429.45;1689539;84;21102;-66
2022/08/24 00:02:34;;;;;;;14.07;8.15;;;;;;;19.94;64.38;100425.64;1689489;84;21069;-67
2022/08/24 00:05:00;;;;;;;16.65;8.25;;;;;;;19.93;64.37;100431.11;1689515;84;21047;-68
2022/08/24 00:07:27;;;;;;;13.55;7.70;;;;;;;19.93;64.15;100436.46;1689748;84;21571;-68
2022/08/24 00:09:55;;;;;;;15.18;8.65;;;;;;;19.91;64.73;100432.55;1661392;85;21101;-68
2022/08/24 00:12:23;;;;;;;14.65;7.83;;;;;;;19.88;64.20;100431.44;1740928;82;21133;-69
2022/08/24 00:14:49;;;;;;;13.20;8.38;;;;;;;19.85;63.91;100431.64;1733015;82;21102;-68
2022/08/24 00:17:16;;;;;;;16.17;8.15;;;;;;;19.86;64.29;100436.89;1732978;82;21051;-67
2022/08/24 00:19:43;;;;;;;14.83;7.92;;;;;;;19.84;64.04;100437.47;1732822;82;21106;-67
2022/08/24 00:22:10;;;;;;;14.18;7.83;;;;;;;19.80;64.13;100447.15;1732984;82;21607;-68
2022/08/24 00:24:36;;;;;;;14.60;8.23;;;;;;;19.74;63.49;100444.45;1732858;82;21507;-69
2022/08/24 00:27:06;;;;;;;13.93;7.42;;;;;;;19.71;63.58;100449.98;1733154;82;21179;-68
2022/08/24 00:29:33;;;;;;;16.27;7.80;;;;;;;19.61;63.51;100446.23;1732902;82;21083;-67
2022/08/24 00:32:00;;;;;;;14.60;7.83;;;;;;;19.61;63.51;100446.23;1733095;82;21488;-69
2022/08/24 00:34:26;;;;;;;16.45;7.83;;;;;;;19.61;63.14;100448.89;1732991;82;21579;-67
2022/08/24 00:36:53;;;;;;;17.45;8.13;;;;;;;19.60;63.25;100454.73;1740878;82;21071;-67
2022/08/24 00:39:20;;;;;;;14.78;7.83;;;;;;;19.59;62.77;100457.50;1740897;81;21295;-68
2022/08/24 00:41:48;;;;;;;18.62;8.08;;;;;;;19.57;62.93;100451.40;1740814;81;21035;-69
2022/08/24 00:44:15;;;;;;;14.53;7.83;;;;;;;19.56;62.83;100457.23;1741239;82;21414;-68
2022/08/24 00:46:58;;;;;;;13.50;7.97;;;;;;;19.54;62.62;100454.30;1740905;82;21097;-68
2022/08/24 00:49:36;;;;;;;11.85;7.60;;;;;;;19.50;62.64;100462.98;1741133;82;21668;-68
2022/08/24 00:52:12;;;;;;;15.23;8.05;;;;;;;19.46;63.54;100460.15;1741005;82;21734;-67
2022/08/24 00:54:44;;;;;;;15.90;7.60;;;;;;;19.43;63.16;100462.55;1698729;83;21030;-68
2022/08/24 00:57:11;;;;;;;16.48;8.58;;;;;;;19.37;62.92;100457.66;1710228;83;21050;-68
2022/08/24 00:59:46;;;;;;;21.15;8.00;;;;;;;19.34;63.09;100460.52;1690847;83;21110;-68
2022/08/24 01:02:17;;;;;;;13.48;8.23;;;;;;;19.27;63.51;100457.41;1717746;82;21118;-69
2022/08/24 01:04:55;;;;;;;13.38;7.53;;;;;;;19.23;63.50;100457.72;1741198;82;21192;-68
2022/08/24 01:07:24;;;;;;;16.65;8.03;;;;;;;19.17;63.73;100458.16;1729953;82;21103;-69
2022/08/24 01:09:57;;;;;;;15.90;8.18;;;;;;;19.11;63.67;100470.08;1724712;83;21018;-68
2022/08/24 01:12:27;;;;;;;18.77;7.62;;;;;;;19.05;64.03;100460.69;1723873;83;21037;-69
2022/08/24 01:14:55;;;;;;;14.35;7.30;;;;;;;19.06;64.11;100463.72;1724727;83;21033;-67
2022/08/24 01:20:02;;;;;;;15.15;7.15;;;;;;;18.91;64.80;100467.44;1633136;86;21039;-67
2022/08/24 01:23:01;;;;;;;10.90;7.00;;;;;;;18.85;65.10;100468.68;1724508;83;21057;-68
2022/08/24 01:25:29;;;;;;;12.75;6.87;;;;;;;18.82;65.32;100470.71;1724435;83;21537;-68
2022/08/24 01:27:59;;;;;;;20.48;7.67;;;;;;;18.76;65.33;100475.08;1724709;82;21092;-69
2022/08/24 01:30:26;;;;;;;13.25;6.92;;;;;;;18.71;64.78;100474.53;1724602;83;21545;-67
2022/08/24 01:32:59;;;;;;;11.00;6.53;;;;;;;18.70;64.44;100475.47;1724652;83;22064;-68
2022/08/24 01:35:27;;;;;;;14.20;7.20;;;;;;;18.71;64.17;100477.20;1711689;83;21077;-67
2022/08/24 01:37:54;;;;;;;12.23;7.37;;;;;;;18.71;64.13;100479.38;1740646;82;21641;-68
2022/08/24 01:40:24;;;;;;;15.00;6.97;;;;;;;18.68;64.46;100477.37;1740584;82;21215;-68
2022/08/24 01:42:51;;;;;;;10.50;7.00;;;;;;;18.62;65.14;100483.98;1740613;82;22185;-67
2022/08/24 01:45:19;;;;;;;15.10;7.87;;;;;;;18.56;64.71;100483.88;1740556;82;21247;-69
2022/08/24 01:47:47;;;;;;;10.98;7.37;;;;;;;18.54;64.59;100489.82;1740803;82;21050;-68
2022/08/24 01:50:14;;;;;;;14.13;7.60;;;;;;;18.52;65.02;100489.06;1740859;82;21102;-68
2022/08/24 01:52:42;;;;;;;13.60;7.08;;;;;;;18.49;64.87;100491.91;1741006;82;21602;-68
2022/08/24 01:55:11;;;;;;;9.65;6.90;;;;;;;18.47;64.56;100499.14;1740785;82;21178;-69
2022/08/24 01:57:38;;;;;;;17.65;7.50;;;;;;;18.46;65.26;100498.78;1740578;82;21098;-68
2022/08/24 02:00:08;;;;;;;14.28;6.87;;;;;;;18.42;65.23;100495.44;1732131;82;21158;-67
2022/08/24 02:02:37;;;;;;;14.93;6.72;;;;;;;18.37;65.84;100496.70;1709865;82;21126;-70
2022/08/24 02:05:05;;;;;;;14.85;6.90;;;;;;;18.33;66.02;100499.17;1732654;82;21047;-68
2022/08/24 02:07:33;;;;;;;10.72;6.53;;;;;;;18.27;65.50;100499.55;1732630;82;21211;-67
2022/08/24 02:09:59;;;;;;;12.23;6.78;;;;;;;18.23;65.14;100501.09;1732612;82;21129;-67
2022/08/24 02:12:26;;;;;;;10.78;6.12;;;;;;;18.20;65.15;100493.78;1732532;82;21890;-68
2022/08/24 02:14:53;;;;;;;8.85;5.97;;;;;;;18.15;64.93;100499.40;1732659;82;21062;-67
2022/08/24 02:17:20;;;;;;;9.70;6.42;;;;;;;18.12;65.17;100496.91;1732813;82;21171;-67
2022/08/24 02:19:47;;;;;;;15.85;6.45;;;;;;;18.06;65.32;100495.98;1733014;82;22326;-68
2022/08/24 02:22:14;;;;;;;11.57;6.33;;;;;;;18.01;65.50;100498.05;1732619;82;21567;-69
2022/08/24 02:24:40;;;;;;;10.95;6.65;;;;;;;17.95;65.63;100505.96;1733106;82;21645;-69
2022/08/24 02:27:07;;;;;;;14.70;7.35;;;;;;;17.91;65.74;100500.91;1732743;82;21543;-68
2022/08/24 02:29:35;;;;;;;14.55;6.28;;;;;;;17.88;65.72;100495.78;1732697;82;21062;-68
2022/08/24 02:32:03;;;;;;;9.50;6.50;;;;;;;17.85;66.57;100503.95;1732578;82;21168;-67
2022/08/24 02:34:30;;;;;;;9.18;6.37;;;;;;;17.80;66.75;100499.72;1732601;82;21067;-68
2022/08/24 02:36:57;;;;;;;11.55;7.33;;;;;;;17.79;66.89;100498.50;1739040;82;21038;-67
2022/08/24 02:39:24;;;;;;;17.95;7.55;;;;;;;17.75;67.43;100501.81;1740798;82;21104;-68
2022/08/24 02:41:51;;;;;;;14.25;6.78;;;;;;;17.73;66.97;100505.05;1741306;82;21082;-67
2022/08/24 02:44:18;;;;;;;16.37;7.03;;;;;;;17.68;67.07;100501.81;1740877;82;21694;-67
2022/08/24 02:46:44;;;;;;;15.63;7.50;;;;;;;17.64;66.78;100495.42;1740785;81;21114;-69
2022/08/24 02:49:12;;;;;;;18.75;8.18;;;;;;;17.61;66.89;100490.67;1741040;82;21621;-68
2022/08/24 02:51:44;;;;;;;15.65;8.03;;;;;;;17.60;66.59;100493.45;1740998;82;21069;-69
2022/08/24 02:54:12;;;;;;;17.10;8.68;;;;;;;17.59;66.48;100498.37;1724881;81;21567;-69
2022/08/24 02:56:38;;;;;;;16.95;8.98;;;;;;;17.59;66.23;100490.38;1711464;82;21301;-67
2022/08/24 02:59:05;;;;;;;20.95;9.95;;;;;;;17.59;66.15;100493.05;1711234;83;21058;-68
2022/08/24 03:01:32;;;;;;;19.80;9.40;;;;;;;17.60;65.88;100493.45;1730251;82;21094;-68
2022/08/24 03:03:59;;;;;;;19.52;10.08;;;;;;;17.60;65.66;100494.77;1730174;82;21148;-69
2022/08/24 03:06:26;;;;;;;22.27;10.45;;;;;;;17.60;65.77;100505.43;1724301;83;21106;-69
2022/08/24 03:08:52;;;;;;;24.45;10.78;;;;;;;17.63;65.54;100505.23;1724530;83;21253;-69
2022/08/24 03:11:19;;;;;;;25.08;11.40;;;;;;;17.63;65.42;100498.58;1724289;83;21084;-69
2022/08/24 03:13:46;;;;;;;28.25;12.13;;;;;;;17.63;65.19;100505.72;1699851;83;21100;-66
2022/08/24 03:16:15;;;;;;;32.50;12.28;;;;;;;17.61;65.65;100507.13;1724087;83;21125;-68
2022/08/24 03:18:42;;;;;;;25.32;11.97;;;;;;;17.60;65.07;100516.08;1724619;83;21179;-68
2022/08/24 03:21:09;;;;;;;23.12;12.20;;;;;;;17.64;65.46;100510.92;1724441;83;21091;-68
2022/08/24 03:23:38;;;;;;;27.40;13.00;;;;;;;17.67;65.30;100517.42;1724432;82;21010;-70
2022/08/24 03:30:07;;;;;;;31.23;12.98;;;;;;;17.91;65.44;100522.23;1724304;82;21044;-68
2022/08/24 03:32:34;;;;;;;37.20;13.68;;;;;;;18.23;62.92;100517.08;1699518;83;21053;-68
2022/08/24 03:35:01;;;;;;;36.42;12.98;;;;;;;18.45;62.40;100520.59;1724678;83;21870;-69
2022/08/24 03:37:27;;;;;;;30.82;13.40;;;;;;;18.65;61.59;100524.63;1707918;83;21047;-69
2022/08/24 03:39:54;;;;;;;36.35;14.13;;;;;;;18.85;61.03;100522.53;1689503;83;21206;-69
2022/08/24 03:42:20;;;;;;;26.35;13.85;;;;;;;19.04;59.53;100523.02;1752975;81;21072;-67
2022/08/24 03:44:47;;;;;;;31.55;14.90;;;;;;;19.26;58.71;100510.44;1752807;81;21084;-69
2022/08/24 03:47:14;;;;;;;33.58;15.98;;;;;;;19.49;57.59;100515.56;1752735;81;21215;-70
2022/08/24 03:49:41;;;;;;;41.92;17.12;;;;;;;19.73;55.89;100519.36;1753015;80;21096;-68
2022/08/24 03:52:08;;;;;;;35.88;16.62;;;;;;;19.96;55.59;100521.28;1753492;81;21077;-68
2022/08/24 03:54:35;;;;;;;33.18;16.45;;;;;;;20.18;54.18;100519.30;1752223;81;21086;-69
2022/08/24 03:57:02;;;;;;;46.00;18.95;;;;;;;20.46;53.94;100524.01;1713080;83;21528;-69
2022/08/24 03:59:29;;;;;;;48.85;20.48;;;;;;;20.76;53.15;100518.77;1704784;84;21456;-68
2022/08/24 04:01:57;;;;;;;50.52;19.12;;;;;;;21.04;52.41;100525.11;1684070;85;21659;-69
2022/08/24 04:04:25;;;;;;;43.30;18.55;;;;;;;21.30;50.61;100530.33;1704505;84;21058;-69
2022/08/24 04:06:51;;;;;;;35.25;17.85;;;;;;;21.55;50.70;100523.98;1684208;85;21094;-69
2022/08/24 04:09:18;;;;;;;38.90;17.02;;;;;;;21.87;49.22;100529.53;1705087;84;21031;-69
2022/08/24 04:11:47;;;;;;;38.88;17.48;;;;;;;22.14;48.82;100522.98;1684231;85;21223;-69
2022/08/24 04:14:15;;;;;;;30.35;14.23;;;;;;;22.47;47.80;100529.34;1704624;84;21034;-69
2022/08/24 04:16:44;;;;;;;32.67;13.90;;;;;;;22.71;46.18;100530.54;1684526;85;21117;-69
2022/08/24 04:27:33;;;;;;;28.55;11.63;;;;;;;23.37;43.50;100512.97;1698423;84;21046;-68
2022/08/24 04:34:07;;;;;;;23.10;10.55;;;;;;;23.69;42.90;100510.22;1703088;84;21061;-69
2022/08/24 04:36:45;;;;;;;27.80;10.58;;;;;;;24.00;41.58;100514.34;1705520;84;21078;-69
2022/08/24 04:39:15;;;;;;;21.17;8.63;;;;;;;24.18;41.34;100518.57;1687443;84;21058;-70
2022/08/24 04:42:00;;;;;;;20.45;8.50;;;;;;;24.32;40.95;100512.84;1705996;84;21131;-69
2022/08/24 04:44:28;;;;;;;21.68;8.00;;;;;;;24.53;40.11;100517.34;1705998;84;21058;-70
2022/08/24 04:46:55;;;;;;;18.45;8.43;;;;;;;24.73;39.95;100517.71;1705969;84;21062;-69
2022/08/24 04:49:22;;;;;;;19.12;8.38;;;;;;;24.97;39.50;100516.49;1687796;84;21082;-69
2022/08/24 04:51:49;;;;;;;18.57;6.62;;;;;;;25.13;39.27;100515.44;1684203;85;21344;-69
2022/08/24 04:54:17;;;;;;;16.60;7.45;;;;;;;25.29;38.31;100514.39;1683375;85;21627;-69
2022/08/24 04:56:43;;;;;;;16.30;6.08;;;;;;;25.43;38.42;100499.62;1712863;83;21063;-68
2022/08/24 04:59:10;;;;;;;17.77;6.37;;;;;;;25.71;37.57;100511.34;1686294;84;21062;-69
2022/08/24 05:01:40;;;;;;;14.53;6.50;;;;;;;25.83;37.35;100513.88;1704421;84;21562;-68
2022/08/24 05:04:07;;;;;;;;;;;;;;;25.91;37.26;100504.09;1707112;84;21093;-68
2022/08/24 05:06:35;;;;;;;12.50;5.72;;;;;;;26.12;37.34;100503.88;1704442;84;21610;-71
2022/08/24 05:09:04;;;;;;;14.63;5.10;;;;;;;26.31;36.33;100502.08;1704620;84;21047;-69
2022/08/24 05:11:31;;;;;;;9.00;4.10;;;;;;;26.41;35.61;100501.55;1704470;84;21055;-70
2022/08/24 05:13:58;;;;;;;13.83;4.42;;;;;;;26.47;35.05;100510.88;1704646;84;21321;-68
2022/08/24 05:16:25;;;;;;;9.38;4.40;;;;;;;26.46;35.15;100505.99;1704239;84;21690;-70
2022/08/24 05:18:55;;;;;;;16.70;4.58;;;;;;;26.58;35.22;100511.56;1704131;84;21165;-68
2022/08/24 05:21:23;;;;;;;16.10;4.20;;;;;;;26.78;34.65;100506.05;1686076;84;21133;-70
2022/08/24 05:23:49;;;;;;;10.65;4.00;;;;;;;26.96;34.80;100500.16;1684155;85;21068;-68
2022/08/24 05:26:24;;;;;;;13.38;4.28;;;;;;;27.12;34.26;100509.41;1703944;84;21027;-70
2022/08/24 05:28:56;;;;;;;9.03;3.75;;;;;;;27.25;34.13;100497.73;1683926;85;21174;-70
2022/08/24 05:31:26;;;;;;;8.45;3.80;;;;;;;27.38;34.00;100494.64;1686117;84;21555;-68
2022/08/24 05:33:54;;;;;;;11.40;3.92;;;;;;;27.60;33.87;100495.97;1665974;85;21099;-70
2022/08/24 05:36:30;;;;;;;8.55;3.75;;;;;;;27.76;34.05;100496.07;1699401;83;21118;-69
2022/08/24 05:38:59;;;;;;;12.20;3.70;;;;;;;27.80;33.69;100499.31;1673446;85;21117;-69
2022/08/24 05:41:26;;;;;;;10.25;3.87;;;;;;;27.81;33.18;100493.76;1673606;85;21149;-69
2022/08/24 05:43:55;;;;;;;9.33;3.60;;;;;;;27.96;33.42;100502.66;1673081;85;21169;-69
2022/08/24 05:46:21;;;;;;;15.23;3.80;;;;;;;28.09;33.61;100495.44;1673406;85;21087;-69
2022/08/24 05:48:48;;;;;;;13.00;3.80;;;;;;;28.33;32.85;100492.00;1673463;85;21520;-68
2022/08/24 05:51:26;;;;;;;12.37;3.83;;;;;;;28.51;32.53;100498.19;1672871;85;21047;-69
2022/08/24 05:53:55;;;;;;;11.88;3.85;;;;;;;28.63;32.12;100498.73;1673913;85;21867;-69
2022/08/24 05:56:23;;;;;;;10.20;3.83;;;;;;;28.69;32.01;100499.92;1675002;85;21133;-70
2022/08/24 05:58:50;;;;;;;8.05;3.60;;;;;;;28.66;32.19;100498.39;1674852;85;21102;-70
2022/08/24 06:01:22;;;;;;;8.98;3.80;;;;;;;28.75;32.22;100500.63;1674812;84;21574;-71
2022/08/24 06:03:51;;;;;;;13.35;4.10;;;;;;;28.91;31.87;100496.58;1674774;85;21050;-70
2022/08/24 06:06:19;;;;;;;10.75;4.00;;;;;;;29.10;32.16;100494.60;1675130;85;21583;-70
2022/08/24 06:08:50;;;;;;;14.90;4.05;;;;;;;29.29;31.68;100499.71;1674932;85;21861;-70
2022/08/24 06:11:26;;;;;;;11.05;4.55;;;;;;;29.45;31.45;100503.77;1674731;84;21536;-70
2022/08/24 06:13:59;;;;;;;12.55;4.67;;;;;;;29.63;31.20;100506.30;1674773;85;21619;-71
2022/08/24 06:16:25;;;;;;;11.38;4.80;;;;;;;29.81;31.54;100502.03;1658878;85;21070;-69
2022/08/24 06:18:52;;;;;;;14.60;4.70;;;;;;;30.13;30.42;100512.99;1675036;85;21089;-70
2022/08/24 06:21:25;;;;;;;10.13;4.55;;;;;;;30.24;29.81;100510.73;1674855;85;21228;-69
2022/08/24 06:23:52;;;;;;;10.95;4.20;;;;;;;30.36;29.51;100510.39;1675269;84;21085;-70
2022/08/24 06:29:05;;;;;;;12.53;3.50;;;;;;;30.47;29.61;100518.16;1675366;85;21746;-70
2022/08/24 06:31:39;;;;;;;11.40;3.30;;;;;;;30.58;29.56;100518.28;1674846;85;21050;-70
2022/08/24 06:34:12;;;;;;;7.40;3.60;;;;;;;30.68;29.24;100517.02;1674880;84;21691;-70
2022/08/24 06:36:38;;;;;;;8.95;3.27;;;;;;;30.86;28.77;100525.45;1674663;83;21062;-69
2022/08/24 06:39:05;;;;;;;8.15;4.03;;;;;;;31.02;29.01;100522.62;1674783;84;21059;-71
2022/08/24 06:41:32;;;;;;;10.30;3.65;;;;;;;31.18;28.47;100519.45;1674713;85;21083;-69
2022/08/24 06:44:00;;;;;;;10.28;3.87;;;;;;;31.40;28.84;100529.45;1674938;84;21074;-70
2022/08/24 06:46:29;;;;;;;10.70;3.77;;;;;;;31.65;27.58;100533.36;1673181;85;22025;-68
2022/08/24 06:48:55;;;;;;;9.03;3.65;;;;;;;31.85;27.64;100527.71;1674930;85;21055;-70
2022/08/24 06:51:23;;;;;;;7.05;3.80;;;;;;;31.87;27.89;100528.37;1674929;85;21122;-70
2022/08/24 06:53:50;;;;;;;12.13;3.80;;;;;;;31.73;27.69;100537.38;1674450;85;21014;-71
2022/08/24 06:56:18;;;;;;;10.82;3.40;;;;;;;31.60;27.80;100533.07;1673337;85;21102;-70
2022/08/24 06:58:44;;;;;;;9.75;3.45;;;;;;;31.66;27.41;100546.80;1673548;85;21281;-69
2022/08/24 07:01:22;;;;;;;9.43;3.92;;;;;;;31.29;27.97;100544.84;1673437;85;21512;-70
2022/08/24 07:03:49;;;;;;;9.83;3.98;;;;;;;31.18;28.08;100548.02;1673462;85;21095;-70
2022/08/24 07:06:22;;;;;;;11.25;3.75;;;;;;;31.32;28.28;100541.78;1672763;85;21554;-70
2022/08/24 07:08:50;;;;;;;13.00;3.77;;;;;;;31.49;28.15;100546.08;1673545;85;27005;-69
2022/08/24 07:11:17;;;;;;;10.72;3.60;;;;;;;31.84;27.75;100551.03;1673574;84;21180;-70
2022/08/24 07:13:46;;;;;;;11.80;3.90;;;;;;;32.02;27.26;100540.66;1673329;85;21039;-70
2022/08/24 07:16:17;;;;;;;10.00;3.65;;;;;;;32.05;26.90;100538.95;1673544;85;21051;-69
2022/08/24 07:18:44;;;;;;;9.93;3.75;;;;;;;32.17;27.37;100540.68;1673434;85;21058;-69
2022/08/24 07:21:11;;;;;;;13.35;4.25;;;;;;;32.28;27.36;100547.02;1673903;85;21105;-68
2022/08/24 07:23:48;;;;;;;8.25;3.67;;;;;;;32.45;27.22;100546.30;1673504;85;21706;-70
2022/08/24 07:26:21;;;;;;;9.50;3.87;;;;;;;32.65;27.01;100546.58;1673531;85;21512;-69
2022/08/24 07:28:59;;;;;;;12.80;4.12;;;;;;;32.98;26.57;100547.48;1673517;85;21043;-69
2022/08/24 07:31:23;;;;;;;14.35;4.12;;;;;;;33.15;26.31;100547.60;1673389;85;21058;-69
2022/08/24 07:35:52;;;;;;;16.23;4.35;;;;;;;33.25;26.27;100551.89;1796579;79;22645;-70
2022/08/24 07:38:19;;;;;;;13.25;4.10;;;;;;;33.31;26.25;100562.00;1756380;81;21061;-69
2022/08/24 07:40:46;;;;;;;13.30;4.35;;;;;;;33.38;25.73;100554.72;1756373;81;21161;-70
2022/08/24 07:43:13;;;;;;;13.93;3.98;;;;;;;33.47;26.02;100550.81;1751449;81;21033;-71
2022/08/24 07:45:41;;;;;;;13.43;4.25;;;;;;;33.48;26.14;100537.50;1747831;82;21034;-70
2022/08/24 07:48:08;;;;;;;19.30;4.60;;;;;;;33.79;26.19;100542.59;1748433;82;21582;-71
2022/08/24 07:50:38;;;;;;;12.58;4.12;;;;;;;34.16;25.45;100531.52;1747907;82;20958;-71
2022/08/24 07:53:04;;;;;;;18.42;4.03;;;;;;;34.28;24.59;100539.48;1748199;82;21031;-71
2022/08/24 07:55:32;;;;;;;15.15;4.10;;;;;;;34.32;25.07;100538.54;1747839;82;20957;-72
2022/08/24 07:58:00;;;;;;;14.35;4.90;;;;;;;34.36;24.13;100533.83;1748015;82;20965;-71
2022/08/24 08:00:27;;;;;;;16.52;4.12;;;;;;;34.30;24.63;100534.63;1748074;81;21541;-71
2022/08/24 08:02:56;;;;;;;15.78;4.28;;;;;;;34.37;24.15;100530.06;1747830;82;21143;-69
2022/08/24 08:05:23;;;;;;;19.82;5.25;;;;;;;34.44;24.27;100533.67;1748099;82;21104;-70
2022/08/24 08:07:52;;;;;;;31.02;6.22;;;;;;;34.37;24.58;100536.90;1747773;82;21115;-70
2022/08/24 08:10:22;;;;;;;23.75;5.17;;;;;;;34.45;24.07;100533.98;1747797;82;21647;-70
2022/08/24 08:12:51;;;;;;;23.60;5.22;;;;;;;34.48;23.83;100537.66;1747832;81;21057;-70
2022/08/24 08:15:17;;;;;;;19.70;4.92;;;;;;;34.52;23.91;100540.01;1747919;82;21108;-68
2022/08/24 08:17:46;;;;;;;27.37;5.17;;;;;;;34.62;24.11;100535.02;1745196;82;21264;-70
2022/08/24 08:20:12;;;;;;;21.23;4.75;;;;;;;34.85;24.42;100542.34;1718417;82;21037;-69
2022/08/24 08:25:51;;;;;;;25.15;5.08;;;;;;;35.11;23.63;100540.78;1748000;82;21063;-70
2022/08/24 08:28:20;;;;;;;18.10;4.37;;;;;;;35.16;23.63;100546.46;1747401;82;21045;-70
2022/08/24 08:30:46;;;;;;;21.93;4.62;;;;;;;35.50;23.67;100545.97;1747774;82;21230;-70
2022/08/24 08:33:13;;;;;;;23.18;5.85;;;;;;;35.75;23.28;100545.34;1747986;82;21052;-70
2022/08/24 08:35:43;;;;;;;30.45;5.83;;;;;;;35.80;22.87;100534.58;1737344;82;20998;-72
2022/08/24 08:38:11;;;;;;;22.73;4.92;;;;;;;35.88;23.30;100534.37;1734864;82;21050;-71
2022/08/24 08:40:56;;;;;;;13.62;4.00;;;;;;;35.94;22.89;100548.59;1734673;82;21499;-70
2022/08/24 08:43:40;;;;;;;20.97;4.20;;;;;;;35.98;21.51;100543.52;1734400;82;21610;-70
2022/08/24 08:46:43;;;;;;;19.48;4.67;;;;;;;36.11;22.03;100533.39;1734385;82;21038;-71
2022/08/24 08:50:06;;;;;;;23.95;4.50;;;;;;;36.24;22.38;100538.55;1734246;82;21014;-71
2022/08/24 08:52:46;;;;;;;16.93;4.03;;;;;;;36.16;22.25;100542.34;1734330;82;21086;-70
2022/08/24 08:55:41;;;;;;;18.52;4.50;;;;;;;35.98;22.57;100542.14;1668084;84;21057;-70
2022/08/24 08:58:33;;;;;;;21.82;4.53;;;;;;;36.20;22.56;100549.63;1639685;86;21129;-70
2022/08/24 09:01:23;;;;;;;17.75;3.70;;;;;;;36.09;20.94;100532.73;1704607;83;21057;-70
2022/08/24 09:04:10;;;;;;;15.58;4.53;;;;;;;35.78;20.51;100538.09;1705316;84;21528;-69
2022/08/24 09:06:56;;;;;;;14.10;3.72;;;;;;;35.64;20.74;100538.09;1703662;83;21475;-70
2022/08/24 09:09:45;;;;;;;17.20;3.83;;;;;;;34.89;21.18;100534.05;1705034;84;21088;-70
2022/08/24 09:12:51;;;;;;;16.12;3.47;;;;;;;34.51;22.16;100534.20;1682164;83;21611;-69
2022/08/24 09:15:55;;;;;;;24.30;3.77;;;;;;;34.96;22.34;100537.34;1659302;86;21061;-72
2022/08/24 09:18:59;;;;;;;18.62;4.42;;;;;;;35.28;21.38;100535.20;1704903;84;21002;-70
2022/08/24 09:21:48;;;;;;;13.93;3.37;;;;;;;35.48;21.33;100531.64;1705113;84;21142;-70
2022/08/24 09:24:54;;;;;;;18.35;4.10;;;;;;;35.82;20.71;100536.08;1705142;83;21082;-70
2022/08/24 09:27:41;;;;;;;16.35;3.58;;;;;;;35.82;20.66;100536.08;1699803;84;21779;-70
2022/08/24 09:30:25;;;;;;;12.58;3.60;;;;;;;36.07;20.17;100538.12;1659043;86;21617;-69
2022/08/24 09:33:14;;;;;;;12.50;3.10;;;;;;;36.14;20.37;100534.86;1734003;82;21030;-70
2022/08/24 09:36:03;;;;;;;22.53;3.70;;;;;;;36.12;19.51;100530.98;1739526;81;21506;-69
2022/08/24 09:39:09;;;;;;;12.53;3.75;;;;;;;35.91;19.69;100528.45;1740128;82;21025;-70
2022/08/24 09:42:04;;;;;;;12.30;3.90;;;;;;;36.01;19.86;100529.41;1742326;82;21885;-70
2022/08/24 09:44:59;;;;;;;18.30;3.83;;;;;;;36.49;20.48;100519.44;1741083;82;21009;-70
2022/08/24 09:47:46;;;;;;;10.40;3.40;;;;;;;36.69;19.67;100524.33;1742655;82;21010;-70
2022/08/24 09:50:41;;;;;;;13.35;3.00;;;;;;;36.41;19.54;100517.79;1742506;82;20971;-70
2022/08/24 09:53:55;;;;;;;20.88;4.00;;;;;;;36.25;19.30;100524.60;1742678;82;21045;-70
2022/08/24 09:57:08;;;;;;;7.42;3.47;;;;;;;36.13;19.54;100527.17;1710987;83;21618;-71
2022/08/24 09:59:59;;;;;;;14.43;3.60;;;;;;;35.80;19.96;100524.99;1711338;83;21209;-71
2022/08/24 10:02:38;;;;;;;;;;;;;;;35.76;20.01;100521.02;1744616;82;21053;-72
2022/08/24 10:05:25;;;;;;;13.05;3.20;;;;;;;35.69;20.47;100520.48;1742150;81;20311;-71
2022/08/24 10:08:24;;;;;;;18.75;3.60;;;;;;;35.89;20.08;100522.34;1742276;82;21082;-70
2022/08/24 10:11:20;;;;;;;11.60;3.20;;;;;;;35.83;20.46;100517.73;1742410;82;21207;-70
2022/08/24 10:13:55;;;;;;;12.90;3.42;;;;;;;36.06;19.90;100515.36;1742179;82;21029;-70
2022/08/24 10:16:39;;;;;;;18.85;4.22;;;;;;;36.17;19.69;100507.54;1742475;82;21581;-68
2022/08/24 10:19:31;;;;;;;13.15;3.20;;;;;;;36.36;20.14;100514.87;1742493;82;21304;-70
2022/08/24 10:22:13;;;;;;;17.20;3.90;;;;;;;36.68;19.75;100515.80;1742243;82;21090;-71
2022/08/24 10:25:08;;;;;;;13.03;3.40;;;;;;;36.76;19.55;100517.44;1716436;82;21880;-70
2022/08/24 10:28:06;;;;;;;14.43;3.45;;;;;;;36.63;19.45;100510.14;1741945;82;21588;-68
2022/08/24 10:30:59;;;;;;;15.43;3.90;;;;;;;36.58;19.61;100507.16;1741936;82;21092;-70
2022/08/24 10:33:31;;;;;;;14.58;3.47;;;;;;;36.66;20.25;100503.37;1742069;82;21086;-70
2022/08/24 10:36:42;;;;;;;15.48;3.15;;;;;;;36.83;20.17;100507.80;1746095;82;21521;-71
2022/08/24 10:39:41;;;;;;;11.83;3.15;;;;;;;36.88;19.73;100511.58;1748158;82;22287;-70
2022/08/24 10:45:37;;;;;;;16.67;3.00;;;;;;;36.71;19.85;100510.41;1743258;82;21065;-70
2022/08/24 10:48:31;;;;;;;16.77;3.20;;;;;;;36.70;19.85;100511.48;1744327;82;21073;-71
2022/08/24 10:51:27;;;;;;;20.57;4.12;;;;;;;36.98;20.43;100513.00;1748381;81;21612;-69
2022/08/24 10:53:55;;;;;;;16.87;3.58;;;;;;;37.21;19.60;100517.39;1735942;81;21864;-69
2022/08/24 10:56:43;;;;;;;32.20;4.35;;;;;;;36.98;19.81;100504.77;1718090;83;21033;-70
2022/08/24 10:59:18;;;;;;;17.82;3.27;;;;;;;37.02;19.79;100510.09;1706017;83;21081;-72
2022/08/24 11:02:05;;;;;;;18.40;3.02;;;;;;;37.08;19.57;100509.25;1718012;83;21291;-70
2022/08/24 11:04:32;;;;;;;25.85;4.40;;;;;;;37.02;19.76;100508.22;1718406;83;21037;-70
2022/08/24 11:07:17;;;;;;;21.45;3.67;;;;;;;36.85;20.15;100507.88;1718185;83;21116;-71
2022/08/24 11:10:00;;;;;;;17.50;3.47;;;;;;;36.70;19.75;100503.25;1718352;83;21113;-70
2022/08/24 11:12:38;;;;;;;23.42;3.85;;;;;;;36.36;20.23;100508.02;1718273;83;21097;-70
2022/08/24 11:15:12;;;;;;;21.07;3.87;;;;;;;36.26;20.18;100500.76;1691894;83;21054;-69
2022/08/24 11:17:40;;;;;;;16.20;3.25;;;;;;;36.15;20.44;100499.55;1717535;83;21036;-69
2022/08/24 11:20:18;;;;;;;12.13;3.37;;;;;;;36.16;20.35;100502.59;1691999;83;21067;-70
2022/08/24 11:23:06;;;;;;;19.60;3.52;;;;;;;36.20;20.24;100499.73;1703531;83;21072;-70
2022/08/24 11:25:37;;;;;;;17.00;3.45;;;;;;;36.20;20.09;100493.42;1718770;83;21013;-71
2022/08/24 11:28:39;;;;;;;10.60;2.83;;;;;;;36.29;20.34;100492.12;1718166;83;21042;-69
2022/08/24 11:31:19;;;;;;;15.78;3.40;;;;;;;36.39;19.84;100492.48;1718623;83;21101;-70
2022/08/24 11:33:49;;;;;;;18.23;3.27;;;;;;;36.29;20.45;100495.70;1712580;83;26665;-72
2022/08/24 11:36:22;;;;;;;14.63;3.30;;;;;;;36.12;20.70;100480.27;1709396;83;21026;-70
2022/08/24 11:38:50;;;;;;;17.52;3.25;;;;;;;35.94;20.73;100488.31;1704656;84;21053;-70
2022/08/24 11:41:27;;;;;;;18.87;3.22;;;;;;;35.90;20.84;100482.94;1684677;84;21050;-70
2022/08/24 11:44:06;;;;;;;15.63;2.92;;;;;;;36.08;20.78;100481.72;1704530;84;21068;-69
2022/08/24 11:46:50;;;;;;;12.70;2.92;;;;;;;36.03;20.60;100482.91;1704820;83;21081;-71
2022/08/24 11:49:43;;;;;;;19.60;3.55;;;;;;;35.97;20.68;100486.50;1704753;84;21041;-70
2022/08/24 11:52:17;;;;;;;22.70;4.00;;;;;;;35.79;21.18;100491.81;1704975;84;22232;-70
2022/08/24 11:54:52;;;;;;;18.25;3.52;;;;;;;35.61;21.46;100480.11;1707549;82;21039;-71
2022/08/24 11:57:33;;;;;;;19.75;3.20;;;;;;;35.66;21.68;100485.31;1734183;82;21027;-71
2022/08/24 12:00:16;;;;;;;15.85;3.47;;;;;;;35.82;21.52;100483.16;1734031;82;21219;-71
2022/08/24 12:03:06;;;;;;;11.63;2.92;;;;;;;35.75;21.80;100489.18;1734289;82;21077;-70
2022/08/24 12:05:45;;;;;;;24.27;3.12;;;;;;;35.67;21.61;100485.61;1734186;82;21110;-71
2022/08/24 12:08:26;;;;;;;14.25;3.42;;;;;;;35.57;21.63;100485.69;1734254;82;21047;-71
2022/08/24 12:11:10;;;;;;;18.25;2.98;;;;;;;35.39;22.62;100490.47;1734351;82;21525;-70
2022/08/24 12:13:52;;;;;;;12.82;3.08;;;;;;;35.19;22.13;100485.81;1734179;82;21261;-71
2022/08/24 12:16:36;;;;;;;22.65;3.87;;;;;;;35.16;22.31;100481.30;1734223;82;21030;-71